createdAt,value
2019-02-28T00:00:17.706Z,90.50
2019-02-28T00:02:46.279Z,90.70
2019-02-28T00:05:14.906Z,91.10
2019-02-28T00:07:43.503Z,91.20
2019-02-28T00:10:12.031Z,91.10
2019-02-28T00:12:40.607Z,91.40
2019-02-28T00:15:09.799Z,91.80
2019-02-28T00:17:42.585Z,92.00
2019-02-28T00:20:09.511Z,92.60
2019-02-28T00:22:38.086Z,92.70
2019-02-28T00:25:08.583Z,93.00
2019-02-28T00:27:37.165Z,93.10
2019-02-28T00:30:11.700Z,93.10
2019-02-28T00:32:40.275Z,93.10
2019-02-28T00:35:12.945Z,93.00
2019-02-28T00:37:39.494Z,92.80
2019-02-28T00:40:09.987Z,92.60
2019-02-28T00:42:38.564Z,92.50
2019-02-28T00:45:16.618Z,92.40
2019-02-28T00:47:47.544Z,92.30
2019-02-28T00:50:15.391Z,92.20
2019-02-28T00:52:43.962Z,91.90
2019-02-28T00:55:14.741Z,92.00
2019-02-28T00:57:44.045Z,91.90
2019-02-28T01:00:17.951Z,91.70
2019-02-28T01:02:51.890Z,91.70
2019-02-28T01:05:16.862Z,91.60
2019-02-28T01:07:48.108Z,91.60
2019-02-28T01:10:15.638Z,91.60
2019-02-28T01:12:44.210Z,91.40
2019-02-28T01:15:17.558Z,91.40
2019-02-28T01:17:46.367Z,91.10
2019-02-28T01:20:16.429Z,91.10
2019-02-28T01:22:45.232Z,90.90
2019-02-28T01:25:18.156Z,91.00
2019-02-28T01:27:46.866Z,91.00
2019-02-28T01:30:16.361Z,90.90
2019-02-28T01:32:49.874Z,90.90
2019-02-28T01:35:15.270Z,90.90
2019-02-28T01:37:43.924Z,90.80
2019-02-28T01:40:14.116Z,90.50
2019-02-28T01:42:42.691Z,90.70
2019-02-28T01:45:14.607Z,90.70
2019-02-28T01:47:43.187Z,90.70
2019-02-28T01:50:12.867Z,90.80
2019-02-28T01:52:45.994Z,90.80
2019-02-28T01:55:11.887Z,90.90
2019-02-28T01:57:44.064Z,91.00
2019-02-28T02:00:13.609Z,91.10
2019-02-28T02:02:42.182Z,91.10
2019-02-28T02:05:10.807Z,91.20
2019-02-28T02:07:39.386Z,91.30
2019-02-28T02:10:21.433Z,91.40
2019-02-28T02:12:51.170Z,91.40
2019-02-28T02:15:20.159Z,91.50
2019-02-28T02:17:48.739Z,91.50
2019-02-28T02:20:17.737Z,91.90
2019-02-28T02:22:46.315Z,91.70
2019-02-28T02:25:15.020Z,92.20
2019-02-28T02:27:43.582Z,92.00
2019-02-28T02:30:15.927Z,92.30
2019-02-28T02:32:45.224Z,92.20
2019-02-28T02:35:13.787Z,92.50
2019-02-28T02:37:42.413Z,92.50
2019-02-28T02:40:15.845Z,92.80
2019-02-28T02:42:48.439Z,92.90
2019-02-28T02:45:15.281Z,92.80
2019-02-28T02:47:43.803Z,93.00
2019-02-28T02:50:14.373Z,93.00
2019-02-28T02:52:43.188Z,93.00
2019-02-28T02:55:11.886Z,93.10
2019-02-28T02:57:40.455Z,92.90
2019-02-28T03:00:16.678Z,93.20
2019-02-28T03:02:45.590Z,93.00
2019-02-28T03:05:14.888Z,93.10
2019-02-28T03:07:43.533Z,93.10
2019-02-28T03:10:17.306Z,93.10
2019-02-28T03:12:44.823Z,92.90
2019-02-28T03:15:25.277Z,93.00
2019-02-28T03:17:48.747Z,93.00
2019-02-28T03:20:17.671Z,93.20
2019-02-28T03:22:46.235Z,93.20
2019-02-28T03:25:17.959Z,93.40
2019-02-28T03:27:46.533Z,93.40
2019-02-28T03:30:27.675Z,93.30
2019-02-28T03:32:49.536Z,93.40
2019-02-28T03:35:18.100Z,93.40
2019-02-28T03:37:46.674Z,93.50
2019-02-28T03:40:16.074Z,93.60
2019-02-28T03:42:44.658Z,94.00
2019-02-28T03:45:17.617Z,93.90
2019-02-28T03:47:46.201Z,94.10
2019-02-28T03:50:14.811Z,94.40
2019-02-28T03:52:44.677Z,94.50
2019-02-28T03:55:14.419Z,94.60
2019-02-28T03:57:43.169Z,94.90
2019-02-28T04:00:19.516Z,95.40
2019-02-28T04:02:48.091Z,95.50
2019-02-28T04:05:16.642Z,95.70
2019-02-28T04:07:52.912Z,95.60
2019-02-28T04:10:16.675Z,95.90
2019-02-28T04:12:47.081Z,95.80
2019-02-28T04:15:19.873Z,96.00
2019-02-28T04:17:48.543Z,96.00
2019-02-28T04:20:17.159Z,95.90
2019-02-28T04:22:45.739Z,96.30
2019-02-28T04:25:14.328Z,95.80
2019-02-28T04:27:42.902Z,95.90
2019-02-28T04:30:12.991Z,95.90
2019-02-28T04:32:41.618Z,95.80
2019-02-28T04:35:10.930Z,96.10
2019-02-28T04:37:44.874Z,96.00
2019-02-28T04:40:11.616Z,96.10
2019-02-28T04:42:40.175Z,96.40
2019-02-28T04:45:13.238Z,96.60
2019-02-28T04:47:41.935Z,96.70
2019-02-28T04:50:14.242Z,96.90
2019-02-28T04:52:47.117Z,97.00
2019-02-28T04:55:13.028Z,97.20
2019-02-28T04:57:41.585Z,97.80
2019-02-28T05:00:19.013Z,97.50
2019-02-28T05:02:47.565Z,97.50
2019-02-28T05:05:16.142Z,98.00
2019-02-28T05:07:44.698Z,98.10
2019-02-28T05:10:13.353Z,98.20
2019-02-28T05:12:41.985Z,98.70
2019-02-28T05:15:16.809Z,98.80
2019-02-28T05:17:48.091Z,99.00
2019-02-28T05:20:16.670Z,99.80
2019-02-28T05:22:45.225Z,99.90
2019-02-28T05:25:17.374Z,99.90
2019-02-28T05:27:44.015Z,99.90
2019-02-28T05:30:18.032Z,99.90
2019-02-28T05:32:44.534Z,99.90
2019-02-28T05:35:13.294Z,99.90
2019-02-28T05:37:46.697Z,99.90
2019-02-28T05:40:14.386Z,99.90
2019-02-28T05:42:42.958Z,99.90
2019-02-28T05:45:14.810Z,99.90
2019-02-28T05:47:46.147Z,99.90
2019-02-28T05:50:16.651Z,99.90
2019-02-28T05:52:43.439Z,99.90
2019-02-28T05:55:12.089Z,99.90
2019-02-28T05:57:43.442Z,99.90
2019-02-28T06:00:14.854Z,99.90
2019-02-28T06:02:43.415Z,99.90
2019-02-28T06:05:12.794Z,99.90
2019-02-28T06:07:41.454Z,99.90
2019-02-28T06:10:12.073Z,99.90
2019-02-28T06:12:43.751Z,99.90
2019-02-28T06:15:12.803Z,99.90
2019-02-28T06:17:41.430Z,99.90
2019-02-28T06:20:11.451Z,99.90
2019-02-28T06:22:40.017Z,99.90
2019-02-28T06:25:11.006Z,99.90
2019-02-28T06:27:41.943Z,99.90
2019-02-28T06:30:14.742Z,99.90
2019-02-28T06:32:43.290Z,99.90
2019-02-28T06:35:15.982Z,99.90
2019-02-28T06:37:42.218Z,99.90
2019-02-28T06:40:15.997Z,99.90
2019-02-28T06:42:46.914Z,99.90
2019-02-28T06:45:19.270Z,99.90
2019-02-28T06:47:49.646Z,99.90
2019-02-28T06:50:18.037Z,99.90
2019-02-28T06:52:46.607Z,99.90
2019-02-28T06:55:25.982Z,99.90
2019-02-28T06:57:54.542Z,99.90
2019-02-28T07:00:23.186Z,99.90
2019-02-28T07:02:51.747Z,99.90
2019-02-28T07:05:24.628Z,99.90
2019-02-28T07:07:50.602Z,99.90
2019-02-28T07:10:19.229Z,99.90
2019-02-28T07:12:47.743Z,99.90
2019-02-28T07:15:16.322Z,99.90
2019-02-28T07:17:46.570Z,99.90
2019-02-28T07:20:19.588Z,99.90
2019-02-28T07:22:48.138Z,99.90
2019-02-28T07:25:16.718Z,99.90
2019-02-28T07:27:45.278Z,99.90
2019-02-28T07:30:18.419Z,99.90
2019-02-28T07:32:47.212Z,99.90
2019-02-28T07:35:15.804Z,99.90
2019-02-28T07:37:44.364Z,99.90
2019-02-28T07:40:17.355Z,99.90
2019-02-28T07:42:46.376Z,99.90
2019-02-28T07:45:15.857Z,99.90
2019-02-28T07:47:44.567Z,99.90
2019-02-28T07:50:14.894Z,99.90
2019-02-28T07:52:43.592Z,99.90
2019-02-28T07:55:20.166Z,99.90
2019-02-28T07:57:54.291Z,99.90
2019-02-28T08:00:20.441Z,99.90
2019-02-28T08:02:49.028Z,99.90
2019-02-28T08:05:17.759Z,99.90
2019-02-28T08:07:51.855Z,99.90
2019-02-28T08:10:28.666Z,99.90
2019-02-28T08:12:57.222Z,99.90
2019-02-28T08:15:27.016Z,99.90
2019-02-28T08:17:55.647Z,99.90
2019-02-28T08:20:24.301Z,99.90
2019-02-28T08:22:56.534Z,99.90
2019-02-28T08:25:23.234Z,99.90
2019-02-28T08:27:51.798Z,99.90
2019-02-28T08:30:31.092Z,99.90
2019-02-28T08:32:59.654Z,99.90
2019-02-28T08:35:33.933Z,99.90
2019-02-28T08:37:58.441Z,99.90
2019-02-28T08:40:27.968Z,99.90
2019-02-28T08:42:56.658Z,99.90
2019-02-28T08:45:25.170Z,99.90
2019-02-28T08:47:56.715Z,99.90
2019-02-28T08:50:24.921Z,99.90
2019-02-28T08:53:01.463Z,99.90
2019-02-28T08:55:30.116Z,99.90
2019-02-28T08:58:05.139Z,99.90
2019-02-28T09:00:32.570Z,99.90
2019-02-28T09:03:00.826Z,99.90
2019-02-28T09:05:30.255Z,99.90
2019-02-28T09:07:58.989Z,99.90
2019-02-28T09:10:27.712Z,99.90
2019-02-28T09:12:56.275Z,99.90
2019-02-28T09:15:30.188Z,99.90
2019-02-28T09:17:58.212Z,99.90
2019-02-28T09:20:25.350Z,99.90
2019-02-28T09:22:53.906Z,99.90
2019-02-28T09:25:26.988Z,99.90
2019-02-28T09:27:55.757Z,99.90
2019-02-28T09:30:41.826Z,99.90
2019-02-28T09:33:10.381Z,99.90
2019-02-28T09:35:39.036Z,99.90
2019-02-28T09:38:13.226Z,99.80
2019-02-28T09:40:37.841Z,99.80
2019-02-28T09:43:06.403Z,98.70
2019-02-28T09:45:35.357Z,98.80
2019-02-28T09:48:03.994Z,98.30
2019-02-28T09:50:33.341Z,98.70
2019-02-28T09:53:01.948Z,99.00
2019-02-28T09:55:34.074Z,98.20
2019-02-28T09:58:00.737Z,98.20
2019-02-28T10:00:30.246Z,97.80
2019-02-28T10:02:58.867Z,98.30
2019-02-28T10:05:27.466Z,97.70
2019-02-28T10:08:01.631Z,96.90
2019-02-28T10:10:28.095Z,96.60
2019-02-28T10:12:56.959Z,95.30
2019-02-28T10:15:26.577Z,94.40
2019-02-28T10:17:55.170Z,94.10
2019-02-28T10:20:31.543Z,93.50
2019-02-28T10:23:00.103Z,91.30
2019-02-28T10:25:28.664Z,90.40
2019-02-28T10:28:01.608Z,90.60
2019-02-28T10:30:32.085Z,90.50
2019-02-28T10:32:58.703Z,90.40
2019-02-28T10:35:27.266Z,88.80
2019-02-28T10:37:58.399Z,89.30
2019-02-28T10:40:28.276Z,90.20
2019-02-28T10:42:56.937Z,88.40
2019-02-28T10:45:26.208Z,88.90
2019-02-28T10:47:54.795Z,87.00
2019-02-28T10:50:26.000Z,86.30
2019-02-28T10:52:54.655Z,83.50
2019-02-28T10:55:23.390Z,83.90
2019-02-28T10:57:52.123Z,83.90
2019-02-28T11:00:32.933Z,85.40
2019-02-28T11:03:02.664Z,84.60
2019-02-28T11:05:33.173Z,85.30
2019-02-28T11:08:02.495Z,83.80
2019-02-28T11:10:35.648Z,80.90
2019-02-28T11:13:04.665Z,81.80
2019-02-28T11:15:33.287Z,82.50
2019-02-28T11:18:01.876Z,83.20
2019-02-28T11:20:30.583Z,81.60
2019-02-28T11:22:59.168Z,81.80
2019-02-28T11:25:28.155Z,79.70
2019-02-28T11:27:56.740Z,78.70
2019-02-28T11:30:27.445Z,79.00
2019-02-28T11:32:56.097Z,78.10
2019-02-28T11:35:25.211Z,76.50
2019-02-28T11:37:53.934Z,75.90
2019-02-28T11:40:24.922Z,74.20
2019-02-28T11:42:53.664Z,73.90
2019-02-28T11:45:27.899Z,74.30
2019-02-28T11:47:58.430Z,73.30
2019-02-28T11:50:26.990Z,73.30
2019-02-28T11:52:55.575Z,73.60
2019-02-28T11:55:24.206Z,72.20
2019-02-28T11:57:53.027Z,72.80
2019-02-28T12:00:27.365Z,73.00
2019-02-28T12:02:59.914Z,72.20
2019-02-28T12:05:26.538Z,72.80
2019-02-28T12:07:55.265Z,73.00
2019-02-28T12:10:26.995Z,73.30
2019-02-28T12:12:56.366Z,73.70
2019-02-28T12:15:29.799Z,74.60
2019-02-28T12:18:03.505Z,73.20
2019-02-28T12:20:28.603Z,73.20
2019-02-28T12:22:57.184Z,74.20
2019-02-28T12:25:26.009Z,73.20
2019-02-28T12:27:55.264Z,72.80
2019-02-28T12:30:26.664Z,73.40
2019-02-28T12:32:55.243Z,73.50
2019-02-28T12:35:23.806Z,73.90
2019-02-28T12:37:53.943Z,74.30
2019-02-28T12:40:25.871Z,74.70
2019-02-28T12:42:54.438Z,74.80
2019-02-28T12:45:34.699Z,75.20
2019-02-28T12:48:03.277Z,74.80
2019-02-28T12:50:31.915Z,74.80
2019-02-28T12:53:00.500Z,75.30
2019-02-28T12:55:29.132Z,75.60
2019-02-28T12:57:58.585Z,75.80
2019-02-28T13:00:30.354Z,75.10
2019-02-28T13:02:58.983Z,74.60
2019-02-28T13:05:27.511Z,74.10
2019-02-28T13:07:56.098Z,74.20
2019-02-28T13:10:28.016Z,74.80
2019-02-28T13:13:05.239Z,74.70
2019-02-28T13:15:25.514Z,74.40
2019-02-28T13:17:54.166Z,74.00
2019-02-28T13:20:32.201Z,74.90
2019-02-28T13:22:59.252Z,74.30
2019-02-28T13:25:28.945Z,75.30
2019-02-28T13:27:57.607Z,75.30
2019-02-28T13:30:27.402Z,76.20
2019-02-28T13:32:56.247Z,76.00
2019-02-28T13:35:27.390Z,76.50
2019-02-28T13:37:56.023Z,76.50
2019-02-28T13:40:24.535Z,76.30
2019-02-28T13:42:53.122Z,76.30
2019-02-28T13:45:23.735Z,76.70
2019-02-28T13:47:52.623Z,77.30
2019-02-28T13:50:27.134Z,77.30
2019-02-28T13:52:55.844Z,77.40
2019-02-28T13:55:24.470Z,77.10
2019-02-28T13:57:53.063Z,77.00
2019-02-28T14:00:29.830Z,76.80
2019-02-28T14:03:00.368Z,77.10
2019-02-28T14:05:28.924Z,77.70
2019-02-28T14:07:57.509Z,77.70
2019-02-28T14:10:29.550Z,77.70
2019-02-28T14:12:57.985Z,77.70
2019-02-28T14:15:41.402Z,78.90
2019-02-28T14:18:10.933Z,78.60
2019-02-28T14:20:40.130Z,78.10
2019-02-28T14:23:09.075Z,78.30
2019-02-28T14:25:39.784Z,78.30
2019-02-28T14:28:07.948Z,78.60
2019-02-28T14:30:36.502Z,78.70
2019-02-28T14:33:05.318Z,79.10
2019-02-28T14:35:35.171Z,78.80
2019-02-28T14:38:04.500Z,78.10
2019-02-28T14:40:33.058Z,78.30
2019-02-28T14:43:01.643Z,78.20
2019-02-28T14:45:39.045Z,77.70
2019-02-28T14:48:06.498Z,78.00
2019-02-28T14:50:35.063Z,77.90
2019-02-28T14:53:03.719Z,78.40
2019-02-28T14:55:32.611Z,78.70
2019-02-28T14:58:02.202Z,78.30
2019-02-28T15:00:32.380Z,78.20
2019-02-28T15:03:02.850Z,79.50
2019-02-28T15:05:35.182Z,80.20
2019-02-28T15:08:03.846Z,81.10
2019-02-28T15:10:34.273Z,82.30
2019-02-28T15:13:04.785Z,82.80
2019-02-28T15:15:33.138Z,83.20
2019-02-28T15:18:01.730Z,84.00
2019-02-28T15:20:32.777Z,84.10
2019-02-28T15:23:00.599Z,84.40
2019-02-28T15:25:30.303Z,84.50
2019-02-28T15:27:58.885Z,84.60
2019-02-28T15:30:35.422Z,85.50
2019-02-28T15:33:04.148Z,84.90
2019-02-28T15:35:32.783Z,84.90
2019-02-28T15:38:01.366Z,85.60
2019-02-28T15:40:35.559Z,85.80
2019-02-28T15:43:04.212Z,86.30
2019-02-28T15:45:36.138Z,87.10
2019-02-28T15:48:03.007Z,87.60
2019-02-28T15:50:31.647Z,88.10
2019-02-28T15:53:00.474Z,88.60
2019-02-28T15:55:29.430Z,89.20
2019-02-28T15:57:58.000Z,89.40
2019-02-28T16:00:28.728Z,89.60
2019-02-28T16:02:57.619Z,90.00
2019-02-28T16:05:26.299Z,90.10
2019-02-28T16:07:55.578Z,90.20
2019-02-28T16:10:32.957Z,90.40
2019-02-28T16:13:02.023Z,90.50
2019-02-28T16:15:30.678Z,90.70
2019-02-28T16:17:59.382Z,90.70
2019-02-28T16:20:28.467Z,90.80
2019-02-28T16:22:58.314Z,90.90
2019-02-28T16:25:32.139Z,91.20
2019-02-28T16:28:00.761Z,91.30
2019-02-28T16:30:32.152Z,91.30
2019-02-28T16:32:59.970Z,91.50
2019-02-28T16:35:29.111Z,91.70
2019-02-28T16:37:57.715Z,92.00
2019-02-28T16:40:32.526Z,92.20
2019-02-28T16:43:01.098Z,92.40
2019-02-28T16:45:31.951Z,92.70
2019-02-28T16:48:03.011Z,92.90
2019-02-28T16:50:31.715Z,93.10
2019-02-28T16:53:00.456Z,93.30
2019-02-28T16:55:30.917Z,93.50
2019-02-28T16:57:59.254Z,93.60
2019-02-28T17:00:28.079Z,93.90
2019-02-28T17:02:56.643Z,94.20
2019-02-28T17:05:28.015Z,94.40
2019-02-28T17:07:55.542Z,94.70
2019-02-28T17:10:40.228Z,95.00
2019-02-28T17:13:23.225Z,95.10
2019-02-28T17:16:01.822Z,95.30
2019-02-28T17:18:34.190Z,95.40
2019-02-28T17:21:02.838Z,95.70
2019-02-28T17:23:33.639Z,95.80
2019-02-28T17:26:01.739Z,95.90
2019-02-28T17:28:51.032Z,95.90
2019-02-28T17:31:33.515Z,96.00
2019-02-28T17:34:02.165Z,96.10
2019-02-28T17:36:30.802Z,96.20
2019-02-28T17:38:59.390Z,96.30
2019-02-28T17:41:27.955Z,96.30
2019-02-28T17:44:25.263Z,96.40
2019-02-28T17:47:00.588Z,96.40
2019-02-28T17:50:05.377Z,96.40
2019-02-28T17:52:55.287Z,96.40
2019-02-28T17:55:48.722Z,96.60
2019-02-28T17:58:38.193Z,96.60
2019-02-28T18:01:18.501Z,96.70
2019-02-28T18:04:20.899Z,96.70
2019-02-28T18:07:20.111Z,96.80
2019-02-28T18:09:57.319Z,97.20
2019-02-28T18:12:47.091Z,97.00
2019-02-28T18:15:30.522Z,97.20
2019-02-28T18:18:20.246Z,97.20
2019-02-28T18:21:00.714Z,97.20
2019-02-28T18:23:33.705Z,97.30
2019-02-28T18:26:08.210Z,97.40
2019-02-28T18:28:58.830Z,97.50
2019-02-28T18:31:27.539Z,97.70
2019-02-28T18:33:58.349Z,97.80
2019-02-28T18:36:29.278Z,97.90
2019-02-28T18:38:57.842Z,98.00
2019-02-28T18:41:26.431Z,98.10
2019-02-28T18:43:54.994Z,98.20
2019-02-28T18:46:23.577Z,98.20
2019-02-28T18:48:54.285Z,98.30
2019-02-28T18:51:22.366Z,98.40
2019-02-28T18:53:50.936Z,98.50
2019-02-28T18:56:19.518Z,98.60
2019-02-28T18:58:48.080Z,98.70
2019-02-28T19:01:16.727Z,98.70
2019-02-28T19:03:45.286Z,98.70
2019-02-28T19:06:13.870Z,98.90
2019-02-28T19:08:42.431Z,98.90
2019-02-28T19:11:11.093Z,99.10
2019-02-28T19:13:39.649Z,99.10
2019-02-28T19:16:08.226Z,99.20
2019-02-28T19:18:36.782Z,99.30
2019-02-28T19:21:05.425Z,99.40
2019-02-28T19:23:33.990Z,99.40
2019-02-28T19:26:02.571Z,99.50
2019-02-28T19:28:31.126Z,99.60
2019-02-28T19:30:59.951Z,99.70
2019-02-28T19:33:28.512Z,99.90
2019-02-28T19:35:57.086Z,99.80
2019-02-28T19:38:25.642Z,99.90
2019-02-28T19:40:54.227Z,99.90
2019-02-28T19:43:22.791Z,99.90
2019-02-28T19:45:54.720Z,99.90
2019-02-28T19:48:23.279Z,99.90
2019-02-28T19:50:51.863Z,99.90
2019-02-28T19:53:20.427Z,99.90
2019-02-28T19:55:49.006Z,99.90
2019-02-28T19:58:17.567Z,99.90
2019-02-28T20:00:46.150Z,99.90
2019-02-28T20:03:14.715Z,99.90
2019-02-28T20:05:43.363Z,99.90
2019-02-28T20:08:11.919Z,99.90
2019-02-28T20:10:40.566Z,99.90
2019-02-28T20:13:09.189Z,99.90
2019-02-28T20:15:41.783Z,99.90
2019-02-28T20:18:11.202Z,99.90
2019-02-28T20:20:39.826Z,99.90
2019-02-28T20:23:08.413Z,99.90
2019-02-28T20:25:37.107Z,99.90
2019-02-28T20:28:05.753Z,99.90
2019-02-28T20:30:34.381Z,99.90
2019-02-28T20:33:02.963Z,99.90
2019-02-28T20:35:31.594Z,99.90
2019-02-28T20:38:00.172Z,99.90
2019-02-28T20:40:30.768Z,99.90
2019-02-28T20:42:59.347Z,99.90
2019-02-28T20:45:27.910Z,99.90
2019-02-28T20:47:57.589Z,99.90
2019-02-28T20:50:32.166Z,99.90
2019-02-28T20:53:00.814Z,99.90
2019-02-28T20:55:29.375Z,99.90
2019-02-28T20:57:57.957Z,99.90
2019-02-28T21:00:28.089Z,99.90
2019-02-28T21:02:56.669Z,99.90
2019-02-28T21:05:25.231Z,99.90
2019-02-28T21:07:53.812Z,99.90
2019-02-28T21:10:22.504Z,99.90
2019-02-28T21:12:51.083Z,99.90
2019-02-28T21:15:19.636Z,99.90
2019-02-28T21:17:48.214Z,99.90
2019-02-28T21:20:17.350Z,99.90
2019-02-28T21:22:45.917Z,99.90
2019-02-28T21:25:17.550Z,99.90
2019-02-28T21:27:46.130Z,99.90
2019-02-28T21:30:25.212Z,99.90
2019-02-28T21:32:53.799Z,99.90
2019-02-28T21:35:23.894Z,99.90
2019-02-28T21:37:52.469Z,99.90
2019-02-28T21:42:48.271Z,99.90
2019-02-28T21:45:19.230Z,99.90
2019-02-28T21:47:47.820Z,99.90
2019-02-28T21:50:17.734Z,99.90
2019-02-28T21:52:46.575Z,99.90
2019-02-28T21:55:16.290Z,99.90
2019-02-28T21:57:44.999Z,99.90
2019-02-28T22:00:24.996Z,99.90
2019-02-28T22:02:53.914Z,99.90
2019-02-28T22:05:22.539Z,99.90
2019-02-28T22:07:51.258Z,99.90
2019-02-28T22:10:19.824Z,99.90
2019-02-28T22:12:48.468Z,99.90
2019-02-28T22:15:19.436Z,99.90
2019-02-28T22:17:48.021Z,99.90
2019-02-28T22:20:16.572Z,99.90
2019-02-28T22:22:45.154Z,99.90
2019-02-28T22:25:15.056Z,99.90
2019-02-28T22:27:43.626Z,99.90
2019-02-28T22:30:22.092Z,99.90
2019-02-28T22:32:52.310Z,99.90
2019-02-28T22:35:22.514Z,99.90
2019-02-28T22:37:51.096Z,99.90
2019-02-28T22:40:19.666Z,99.90
2019-02-28T22:42:48.238Z,99.90
2019-02-28T22:45:16.796Z,99.90
2019-02-28T22:47:45.369Z,99.90
2019-02-28T22:50:14.071Z,99.90
2019-02-28T22:52:42.653Z,99.90
2019-02-28T22:55:11.273Z,99.90
2019-02-28T22:57:39.873Z,99.90
2019-02-28T23:00:34.094Z,99.90
2019-02-28T23:03:02.754Z,99.90
2019-02-28T23:05:31.303Z,99.90
2019-02-28T23:07:59.882Z,99.90
2019-02-28T23:10:28.435Z,99.90
2019-02-28T23:12:57.022Z,99.90
2019-02-28T23:15:25.580Z,99.90
2019-02-28T23:17:54.162Z,99.90
2019-02-28T23:20:22.719Z,99.90
2019-02-28T23:22:51.300Z,99.90
2019-02-28T23:25:19.860Z,99.90
2019-02-28T23:27:48.443Z,99.90
2019-02-28T23:30:37.626Z,99.90
2019-02-28T23:33:06.270Z,99.90
2019-02-28T23:35:35.365Z,99.90
2019-02-28T23:38:04.118Z,99.90
2019-02-28T23:40:32.673Z,99.90
2019-02-28T23:43:01.257Z,99.90
2019-02-28T23:45:29.822Z,99.90
2019-02-28T23:47:58.402Z,99.90
2019-02-28T23:50:26.966Z,99.90
2019-02-28T23:52:55.551Z,99.90
2019-02-28T23:55:24.111Z,99.90
2019-02-28T23:57:52.691Z,99.90
